Time;durP1;ratioP1;P1;durP2;ratioP2;P2;SDS_P1;SDS_P2;PMS_P1;PMS_P2;Temp;Humidity;BMP_temperature;BMP_pressure;BME280_temperature;BME280_humidity;BME280_pressure;Samples;Min_cycle;Max_cycle;Signal;HPM_P1;HPM_P2
2020/12/29 00:02:01;;;;;;;3.17;2.97;;;;;;;;;;5033035;28;20435;-49
2020/12/29 00:04:27;;;;;;;3.07;2.77;;;;;;;;;;5033402;28;20408;-49
2020/12/29 00:06:54;;;;;;;3.80;3.47;;;;;;;;;;5033371;28;20408;-47
2020/12/29 00:09:22;;;;;;;3.20;3.00;;;;;;;;;;5033428;28;20410;-48
2020/12/29 00:11:48;;;;;;;3.88;3.50;;;;;;;;;;5033086;28;20179;-50
2020/12/29 00:14:14;;;;;;;3.70;3.40;;;;;;;;;;5033250;28;20222;-48
2020/12/29 00:16:41;;;;;;;3.28;3.08;;;;;;;;;;5035653;28;20200;-49
2020/12/29 00:19:09;;;;;;;3.83;3.33;;;;;;;;;;5053185;28;20192;-48
2020/12/29 00:21:35;;;;;;;4.18;3.80;;;;;;;;;;5052721;28;20160;-47
2020/12/29 00:24:01;;;;;;;3.53;3.33;;;;;;;;;;5053021;28;20203;-47
2020/12/29 00:26:27;;;;;;;4.40;4.00;;;;;;;;;;5053079;28;20171;-48
2020/12/29 00:28:53;;;;;;;3.60;3.30;;;;;;;;;;5052843;28;20882;-47
2020/12/29 00:31:20;;;;;;;3.65;3.35;;;;;;;;;;5049724;28;20172;-47
2020/12/29 00:33:47;;;;;;;3.03;2.75;;;;;;;;;;5033045;28;20197;-47
2020/12/29 00:36:13;;;;;;;4.57;3.25;;;;;;;;;;5033090;28;20200;-50
2020/12/29 00:38:38;;;;;;;5.65;3.70;;;;;;;;;;5032902;28;20172;-49
2020/12/29 00:41:08;;;;;;;4.63;2.90;;;;;;;;;;5032820;28;20228;-47
2020/12/29 00:43:35;;;;;;;3.15;2.88;;;;;;;;;;5032729;28;20425;-47
2020/12/29 00:46:04;;;;;;;3.20;2.90;;;;;;;;;;5032741;28;20195;-47
2020/12/29 00:48:30;;;;;;;5.15;3.13;;;;;;;;;;5032854;28;20169;-46
2020/12/29 00:51:00;;;;;;;2.92;2.63;;;;;;;;;;5032832;28;20184;-47
2020/12/29 00:53:27;;;;;;;2.97;2.78;;;;;;;;;;5032425;28;20192;-47
2020/12/29 00:55:53;;;;;;;3.38;2.85;;;;;;;;;;5032644;28;20192;-47
2020/12/29 00:58:19;;;;;;;3.43;2.90;;;;;;;;;;5032868;28;20164;-47
2020/12/29 01:00:45;;;;;;;3.60;3.00;;;;;;;;;;5032579;28;20406;-47
2020/12/29 01:03:11;;;;;;;2.80;2.50;;;;;;;;;;5032153;28;20474;-47
2020/12/29 01:05:37;;;;;;;2.70;2.50;;;;;;;;;;5032568;28;20775;-47
2020/12/29 01:08:03;;;;;;;4.00;3.33;;;;;;;;;;5032388;28;20489;-47
2020/12/29 01:10:29;;;;;;;3.40;3.20;;;;;;;;;;5032391;28;20413;-47
2020/12/29 01:12:55;;;;;;;2.90;2.70;;;;;;;;;;5031839;28;20577;-47
2020/12/29 01:15:20;;;;;;;4.10;3.20;;;;;;;;;;5032147;28;20402;-47
2020/12/29 01:17:46;;;;;;;3.47;3.13;;;;;;;;;;5032075;28;20399;-47
2020/12/29 01:20:12;;;;;;;3.27;2.97;;;;;;;;;;5032111;28;20410;-49
2020/12/29 01:22:38;;;;;;;3.10;2.80;;;;;;;;;;5031560;28;20419;-49
2020/12/29 01:25:04;;;;;;;3.50;3.20;;;;;;;;;;5032050;28;20396;-50
2020/12/29 01:27:34;;;;;;;6.23;2.80;;;;;;;;;;5031745;28;20403;-48
2020/12/29 01:30:00;;;;;;;4.55;3.40;;;;;;;;;;5032017;28;21040;-51
2020/12/29 01:32:26;;;;;;;3.10;2.90;;;;;;;;;;5031844;28;20265;-49
2020/12/29 01:34:52;;;;;;;3.40;3.10;;;;;;;;;;5031833;28;20449;-50
2020/12/29 01:37:19;;;;;;;2.83;2.63;;;;;;;;;;5031722;28;20453;-50
2020/12/29 01:39:45;;;;;;;7.88;3.05;;;;;;;;;;5031633;28;20394;-50
2020/12/29 01:42:11;;;;;;;3.30;3.10;;;;;;;;;;5031305;28;20675;-50
2020/12/29 01:44:38;;;;;;;3.45;3.13;;;;;;;;;;5031592;28;20167;-46
2020/12/29 01:47:03;;;;;;;4.78;3.58;;;;;;;;;;5031566;28;20191;-47
2020/12/29 01:49:29;;;;;;;3.80;3.50;;;;;;;;;;5031462;28;20180;-47
2020/12/29 01:51:55;;;;;;;7.00;3.00;;;;;;;;;;5031100;28;20465;-49
2020/12/29 01:54:21;;;;;;;3.60;3.30;;;;;;;;;;5031400;28;20406;-49
2020/12/29 01:56:47;;;;;;;3.30;3.10;;;;;;;;;;5030811;28;20203;-50
2020/12/29 01:59:14;;;;;;;4.57;3.30;;;;;;;;;;5031414;28;20768;-50
2020/12/29 02:01:40;;;;;;;3.20;2.90;;;;;;;;;;5032338;28;20176;-50
2020/12/29 02:04:09;;;;;;;3.33;3.13;;;;;;;;;;5050591;28;20599;-47
2020/12/29 02:06:35;;;;;;;2.88;2.67;;;;;;;;;;5049227;28;20708;-48
2020/12/29 02:09:02;;;;;;;3.08;2.65;;;;;;;;;;5051194;28;20194;-48
2020/12/29 02:11:28;;;;;;;3.25;3.03;;;;;;;;;;5050673;28;20164;-48
2020/12/29 02:13:54;;;;;;;3.57;3.27;;;;;;;;;;5050855;28;20193;-47
2020/12/29 02:16:20;;;;;;;3.27;3.00;;;;;;;;;;5050959;28;20456;-50
2020/12/29 02:18:46;;;;;;;3.50;3.20;;;;;;;;;;5050859;28;20838;-50
2020/12/29 02:21:12;;;;;;;3.88;3.42;;;;;;;;;;5050685;28;20541;-50
2020/12/29 02:23:38;;;;;;;5.40;3.17;;;;;;;;;;5050787;28;20259;-47
2020/12/29 02:26:04;;;;;;;6.07;3.00;;;;;;;;;;5050843;28;20398;-47
2020/12/29 02:28:30;;;;;;;3.87;3.33;;;;;;;;;;5051181;28;20401;-47
2020/12/29 02:30:56;;;;;;;3.20;3.00;;;;;;;;;;5050850;28;20402;-47
2020/12/29 02:33:22;;;;;;;4.05;3.65;;;;;;;;;;5036197;28;20453;-48
2020/12/29 02:35:48;;;;;;;3.63;3.33;;;;;;;;;;5030616;28;20191;-48
2020/12/29 02:38:14;;;;;;;3.92;3.65;;;;;;;;;;5030887;28;20168;-47
2020/12/29 02:40:40;;;;;;;2.83;2.73;;;;;;;;;;5030540;28;20250;-48
2020/12/29 02:43:06;;;;;;;4.33;3.23;;;;;;;;;;5030521;28;20472;-48
2020/12/29 02:45:32;;;;;;;4.30;3.00;;;;;;;;;;5030490;28;20450;-49
2020/12/29 02:47:58;;;;;;;4.72;3.90;;;;;;;;;;5030803;28;20408;-50
2020/12/29 02:50:29;;;;;;;3.27;2.90;;;;;;;;;;5030563;28;20167;-50
2020/12/29 02:52:55;;;;;;;4.50;4.10;;;;;;;;;;5030246;28;20418;-47
2020/12/29 02:55:21;;;;;;;3.03;2.73;;;;;;;;;;5030567;28;20248;-47
2020/12/29 02:57:47;;;;;;;7.00;3.40;;;;;;;;;;5030618;28;20396;-47
2020/12/29 03:00:13;;;;;;;3.77;3.40;;;;;;;;;;5030587;28;20952;-47
2020/12/29 03:02:39;;;;;;;4.03;3.73;;;;;;;;;;5042489;28;21011;-47
2020/12/29 03:05:05;;;;;;;3.43;3.23;;;;;;;;;;5050463;28;20421;-47
2020/12/29 03:07:31;;;;;;;3.50;3.27;;;;;;;;;;5051548;28;20401;-47
2020/12/29 03:09:57;;;;;;;4.20;3.80;;;;;;;;;;5054483;28;20495;-48
2020/12/29 03:12:23;;;;;;;3.40;3.13;;;;;;;;;;5054022;28;20422;-49
2020/12/29 03:14:49;;;;;;;5.03;4.53;;;;;;;;;;5054511;28;20511;-50
2020/12/29 03:17:15;;;;;;;3.70;3.40;;;;;;;;;;5054262;28;20449;-50
2020/12/29 03:19:41;;;;;;;4.50;4.10;;;;;;;;;;5054083;28;20411;-47
2020/12/29 03:22:07;;;;;;;4.00;3.70;;;;;;;;;;5054293;28;20408;-47
2020/12/29 03:24:32;;;;;;;8.05;4.75;;;;;;;;;;5054511;28;20976;-47
2020/12/29 03:27:00;;;;;;;7.60;4.50;;;;;;;;;;5054353;28;20176;-47
2020/12/29 03:29:26;;;;;;;4.40;4.00;;;;;;;;;;5054277;28;20406;-47
2020/12/29 03:31:52;;;;;;;6.22;4.88;;;;;;;;;;5049820;28;20187;-47
2020/12/29 03:34:25;;;;;;;5.23;4.83;;;;;;;;;;5034364;28;20592;-48
2020/12/29 03:36:51;;;;;;;4.63;3.65;;;;;;;;;;5034366;28;20461;-47
2020/12/29 03:39:17;;;;;;;4.70;4.20;;;;;;;;;;5034198;28;20167;-47
2020/12/29 03:41:43;;;;;;;5.53;4.32;;;;;;;;;;5033753;28;20172;-47
2020/12/29 03:44:09;;;;;;;5.80;4.50;;;;;;;;;;5033974;28;20186;-47
2020/12/29 03:46:35;;;;;;;4.27;3.90;;;;;;;;;;5033668;28;20839;-47
2020/12/29 03:49:01;;;;;;;7.30;5.10;;;;;;;;;;5033817;28;20410;-47
2020/12/29 03:51:27;;;;;;;4.60;3.90;;;;;;;;;;5033363;28;20498;-47
2020/12/29 03:53:53;;;;;;;5.00;4.50;;;;;;;;;;5033658;28;20449;-48
2020/12/29 03:56:19;;;;;;;5.20;4.70;;;;;;;;;;5033458;28;20794;-47
2020/12/29 03:58:45;;;;;;;5.20;4.72;;;;;;;;;;5033729;28;20218;-48
2020/12/29 04:01:11;;;;;;;7.27;4.20;;;;;;;;;;5035615;28;20730;-48
2020/12/29 04:03:37;;;;;;;3.75;3.40;;;;;;;;;;5053237;28;20413;-48
2020/12/29 04:06:03;;;;;;;4.10;3.80;;;;;;;;;;5053401;28;20171;-48
2020/12/29 04:08:29;;;;;;;11.80;4.18;;;;;;;;;;5053294;28;20406;-48
2020/12/29 04:10:55;;;;;;;4.30;3.87;;;;;;;;;;5053482;28;20170;-48
2020/12/29 04:13:21;;;;;;;4.07;3.77;;;;;;;;;;5052871;28;20444;-48
2020/12/29 04:15:47;;;;;;;3.90;3.60;;;;;;;;;;5053181;28;20442;-48
2020/12/29 04:18:13;;;;;;;11.83;3.50;;;;;;;;;;5052548;28;20443;-50
2020/12/29 04:20:39;;;;;;;4.30;3.93;;;;;;;;;;5053175;28;20421;-50
2020/12/29 04:23:05;;;;;;;4.90;4.43;;;;;;;;;;5052827;28;20831;-47
2020/12/29 04:25:31;;;;;;;4.73;4.10;;;;;;;;;;5053171;28;20425;-47
2020/12/29 04:27:57;;;;;;;5.47;4.47;;;;;;;;;;5053001;28;20763;-47
2020/12/29 04:30:23;;;;;;;5.97;4.40;;;;;;;;;;5052856;28;20397;-48
2020/12/29 04:32:49;;;;;;;5.30;4.40;;;;;;;;;;5038383;28;20463;-47
2020/12/29 04:35:15;;;;;;;4.90;4.53;;;;;;;;;;5032719;28;20406;-48
2020/12/29 04:37:41;;;;;;;5.00;4.60;;;;;;;;;;5032994;28;20844;-48
2020/12/29 04:40:07;;;;;;;4.68;4.20;;;;;;;;;;5032785;28;20247;-48
2020/12/29 04:42:33;;;;;;;6.00;4.10;;;;;;;;;;5032563;28;20270;-48
2020/12/29 04:44:59;;;;;;;5.17;3.87;;;;;;;;;;5032629;28;20247;-48
2020/12/29 04:47:29;;;;;;;4.17;3.87;;;;;;;;;;5032652;28;20738;-47
2020/12/29 04:49:55;;;;;;;8.73;5.57;;;;;;;;;;5032725;28;20468;-48
2020/12/29 04:52:21;;;;;;;5.15;4.00;;;;;;;;;;5032224;28;20209;-48
2020/12/29 04:54:51;;;;;;;6.32;4.47;;;;;;;;;;5032685;28;20758;-48
2020/12/29 04:57:17;;;;;;;10.10;4.97;;;;;;;;;;5032454;28;20187;-47
2020/12/29 04:59:43;;;;;;;6.50;4.00;;;;;;;;;;5032617;28;20155;-47
2020/12/29 05:02:08;;;;;;;6.53;4.63;;;;;;;;;;5031956;28;20452;-48
2020/12/29 05:04:34;;;;;;;4.50;4.20;;;;;;;;;;5032538;28;20882;-47
2020/12/29 05:07:02;;;;;;;3.90;3.60;;;;;;;;;;5032469;28;20862;-49
2020/12/29 05:09:28;;;;;;;4.82;4.43;;;;;;;;;;5032305;28;20737;-48
2020/12/29 05:11:56;;;;;;;4.67;4.20;;;;;;;;;;5031995;28;20217;-49
2020/12/29 05:14:23;;;;;;;4.95;4.43;;;;;;;;;;5032144;28;20442;-48
2020/12/29 05:16:50;;;;;;;4.45;4.05;;;;;;;;;;5032141;28;20287;-47
2020/12/29 05:19:18;;;;;;;5.25;4.75;;;;;;;;;;5032317;28;20166;-49
2020/12/29 05:21:44;;;;;;;8.15;4.50;;;;;;;;;;5032073;28;20182;-49
2020/12/29 05:24:13;;;;;;;7.30;5.27;;;;;;;;;;5032189;28;20187;-52
2020/12/29 05:26:39;;;;;;;5.53;4.53;;;;;;;;;;5032364;28;20407;-47
2020/12/29 05:29:06;;;;;;;7.30;4.65;;;;;;;;;;5032018;28;20168;-47
2020/12/29 05:31:33;;;;;;;5.00;4.50;;;;;;;;;;5030864;28;20229;-51
2020/12/29 05:33:59;;;;;;;5.13;4.72;;;;;;;;;;5031373;28;20196;-47
2020/12/29 05:36:25;;;;;;;5.88;5.15;;;;;;;;;;5032000;28;20282;-48
2020/12/29 05:38:56;;;;;;;5.90;4.50;;;;;;;;;;5031892;28;20632;-47
2020/12/29 05:41:23;;;;;;;5.20;4.70;;;;;;;;;;5031412;28;20420;-47
2020/12/29 05:44:00;;;;;;;5.90;4.55;;;;;;;;;;5031656;28;20180;-50
2020/12/29 05:46:28;;;;;;;4.78;4.38;;;;;;;;;;5031524;28;20261;-50
2020/12/29 05:48:55;;;;;;;6.68;5.30;;;;;;;;;;5031629;28;20169;-47
2020/12/29 05:51:21;;;;;;;5.68;4.57;;;;;;;;;;5031161;28;20176;-49
2020/12/29 05:53:48;;;;;;;5.72;4.85;;;;;;;;;;5031507;28;20195;-49
2020/12/29 05:56:14;;;;;;;7.00;4.90;;;;;;;;;;5031219;28;20199;-47
2020/12/29 05:58:41;;;;;;;5.72;5.22;;;;;;;;;;5030713;28;20173;-48
2020/12/29 06:01:08;;;;;;;4.20;3.90;;;;;;;;;;5031147;28;20168;-49
2020/12/29 06:03:35;;;;;;;4.78;4.38;;;;;;;;;;5046802;28;20199;-47
2020/12/29 06:06:04;;;;;;;8.27;5.15;;;;;;;;;;5051215;28;20180;-50
2020/12/29 06:08:30;;;;;;;6.70;4.95;;;;;;;;;;5051125;28;20170;-49
2020/12/29 06:10:59;;;;;;;6.47;4.35;;;;;;;;;;5051070;28;20171;-48
2020/12/29 06:13:30;;;;;;;4.00;3.65;;;;;;;;;;5050876;28;20290;-48
2020/12/29 06:16:00;;;;;;;5.15;4.65;;;;;;;;;;5050982;28;20183;-48
2020/12/29 06:18:36;;;;;;;4.10;3.80;;;;;;;;;;5050881;28;20215;-48
2020/12/29 06:21:08;;;;;;;4.57;4.18;;;;;;;;;;5050986;28;20238;-50
2020/12/29 06:23:44;;;;;;;6.65;5.00;;;;;;;;;;5050809;28;20587;-48
2020/12/29 06:26:10;;;;;;;5.20;4.50;;;;;;;;;;5050889;28;20166;-50
2020/12/29 06:28:46;;;;;;;6.90;4.47;;;;;;;;;;5050819;28;20227;-50
2020/12/29 06:31:19;;;;;;;6.88;4.65;;;;;;;;;;5050436;28;20401;-47
2020/12/29 06:33:46;;;;;;;5.93;5.40;;;;;;;;;;5035868;28;20217;-48
2020/12/29 06:36:15;;;;;;;7.43;4.82;;;;;;;;;;5030633;28;20295;-47
2020/12/29 06:38:42;;;;;;;5.53;5.03;;;;;;;;;;5030928;28;20163;-52
2020/12/29 06:41:08;;;;;;;5.20;4.70;;;;;;;;;;5030276;28;20559;-50
2020/12/29 06:43:34;;;;;;;5.45;4.90;;;;;;;;;;5040210;28;20195;-49
2020/12/29 06:46:10;;;;;;;7.73;5.20;;;;;;;;;;5050440;28;20183;-49
2020/12/29 06:48:38;;;;;;;7.63;6.05;;;;;;;;;;5050593;28;20412;-48
2020/12/29 06:51:14;;;;;;;5.97;5.45;;;;;;;;;;5050289;28;20182;-52
2020/12/29 06:53:40;;;;;;;4.78;4.38;;;;;;;;;;5049783;28;20197;-48
2020/12/29 06:56:13;;;;;;;6.38;5.50;;;;;;;;;;5049973;28;20197;-49
2020/12/29 06:58:39;;;;;;;11.38;5.88;;;;;;;;;;5049890;28;20167;-48
2020/12/29 07:01:21;;;;;;;8.37;5.60;;;;;;;;;;5049740;28;20185;-51
2020/12/29 07:03:48;;;;;;;6.70;6.00;;;;;;;;;;5038455;28;20519;-47
2020/12/29 07:06:14;;;;;;;6.38;5.75;;;;;;;;;;5030187;28;20528;-49
2020/12/29 07:08:40;;;;;;;6.90;5.57;;;;;;;;;;5029808;28;20171;-50
2020/12/29 07:11:16;;;;;;;7.83;7.03;;;;;;;;;;5029832;28;20256;-47
2020/12/29 07:13:45;;;;;;;10.20;6.00;;;;;;;;;;5029746;28;20560;-47
2020/12/29 07:16:14;;;;;;;7.30;6.55;;;;;;;;;;5029914;28;20229;-50
2020/12/29 07:18:44;;;;;;;8.32;6.53;;;;;;;;;;5029736;28;20168;-48
2020/12/29 07:21:22;;;;;;;7.20;6.50;;;;;;;;;;5029800;28;20209;-48
2020/12/29 07:23:51;;;;;;;7.50;6.70;;;;;;;;;;5040414;28;20198;-47
2020/12/29 07:26:18;;;;;;;7.55;6.43;;;;;;;;;;5029939;28;20244;-50
2020/12/29 07:28:44;;;;;;;6.80;6.10;;;;;;;;;;5028072;28;20182;-48
2020/12/29 07:31:11;;;;;;;10.48;6.80;;;;;;;;;;5028329;28;20591;-47
2020/12/29 07:33:46;;;;;;;8.82;6.32;;;;;;;;;;5037838;28;20749;-49
2020/12/29 07:36:13;;;;;;;10.35;6.95;;;;;;;;;;5049441;28;20200;-48
2020/12/29 07:38:40;;;;;;;10.80;7.68;;;;;;;;;;5050029;28;20192;-47
2020/12/29 07:41:06;;;;;;;14.52;6.80;;;;;;;;;;5050025;28;20245;-47
2020/12/29 07:43:32;;;;;;;11.00;7.60;;;;;;;;;;5050437;28;20237;-47
2020/12/29 07:45:59;;;;;;;8.40;6.87;;;;;;;;;;5049822;28;20428;-53
2020/12/29 07:48:26;;;;;;;8.77;6.40;;;;;;;;;;5049274;28;20459;-50
2020/12/29 07:50:59;;;;;;;11.30;6.65;;;;;;;;;;5049816;28;20167;-47
2020/12/29 07:53:25;;;;;;;10.88;7.05;;;;;;;;;;5050677;28;20691;-47
2020/12/29 07:55:52;;;;;;;6.63;5.90;;;;;;;;;;5053647;28;20577;-47
2020/12/29 07:58:19;;;;;;;10.27;8.02;;;;;;;;;;5053447;28;20166;-48
2020/12/29 08:00:45;;;;;;;8.73;6.95;;;;;;;;;;5053780;28;20173;-48
2020/12/29 08:03:12;;;;;;;11.77;7.47;;;;;;;;;;5050621;28;20203;-49
2020/12/29 08:05:39;;;;;;;8.50;7.22;;;;;;;;;;5053248;28;20175;-48
2020/12/29 08:08:09;;;;;;;9.65;8.30;;;;;;;;;;5053250;28;20163;-48
2020/12/29 08:10:36;;;;;;;37.53;8.15;;;;;;;;;;5053442;28;20254;-47
2020/12/29 08:13:04;;;;;;;14.00;7.57;;;;;;;;;;5052744;28;20202;-48
2020/12/29 08:15:34;;;;;;;16.70;8.00;;;;;;;;;;5053224;28;20164;-50
2020/12/29 08:18:01;;;;;;;9.20;6.60;;;;;;;;;;5052052;28;20190;-47
2020/12/29 08:20:27;;;;;;;9.80;7.32;;;;;;;;;;5052777;28;20178;-50
2020/12/29 08:22:53;;;;;;;13.48;7.80;;;;;;;;;;5052104;28;20182;-47
2020/12/29 08:25:19;;;;;;;10.20;7.57;;;;;;;;;;5053004;28;20568;-49
2020/12/29 08:27:45;;;;;;;8.20;6.68;;;;;;;;;;5053514;28;20167;-49
2020/12/29 08:30:17;;;;;;;11.70;7.72;;;;;;;;;;5052854;28;20178;-48
2020/12/29 08:32:44;;;;;;;15.68;10.60;;;;;;;;;;5046922;28;20199;-49
2020/12/29 08:35:16;;;;;;;8.07;7.13;;;;;;;;;;5032794;28;20254;-47
2020/12/29 08:37:49;;;;;;;18.55;8.20;;;;;;;;;;5052852;28;20262;-50
2020/12/29 08:40:18;;;;;;;8.00;6.70;;;;;;;;;;5045273;28;20637;-48
2020/12/29 08:42:49;;;;;;;14.38;8.50;;;;;;;;;;5040269;28;20715;-47
2020/12/29 08:45:16;;;;;;;14.55;8.15;;;;;;;;;;5045418;28;20191;-51
2020/12/29 08:47:43;;;;;;;12.35;8.52;;;;;;;;;;5051984;28;20218;-47
2020/12/29 08:50:22;;;;;;;12.10;7.05;;;;;;;;;;5051792;28;20172;-50
2020/12/29 08:52:53;;;;;;;12.65;9.05;;;;;;;;;;5052094;28;20193;-50
2020/12/29 08:55:29;;;;;;;11.13;7.55;;;;;;;;;;5052574;28;20286;-49
2020/12/29 08:57:56;;;;;;;10.65;8.05;;;;;;;;;;5052472;28;20171;-50
2020/12/29 09:00:22;;;;;;;10.55;8.20;;;;;;;;;;5052620;28;20205;-48
2020/12/29 09:02:48;;;;;;;11.63;8.25;;;;;;;;;;5043894;28;20216;-48
2020/12/29 09:05:20;;;;;;;9.02;7.18;;;;;;;;;;5032490;28;20231;-47
2020/12/29 09:07:46;;;;;;;10.68;8.48;;;;;;;;;;5036828;28;20205;-48
2020/12/29 09:10:15;;;;;;;15.83;8.70;;;;;;;;;;5050681;28;20175;-49
2020/12/29 09:12:41;;;;;;;9.77;7.30;;;;;;;;;;5047395;28;20484;-47
2020/12/29 09:15:08;;;;;;;8.47;7.40;;;;;;;;;;5037837;28;20185;-47
2020/12/29 09:17:42;;;;;;;10.30;7.40;;;;;;;;;;5050614;28;20827;-50
2020/12/29 09:20:08;;;;;;;9.07;8.10;;;;;;;;;;5051676;28;20672;-47
2020/12/29 09:22:35;;;;;;;11.07;7.80;;;;;;;;;;5053454;28;20206;-48
2020/12/29 09:25:01;;;;;;;7.28;6.57;;;;;;;;;;5032344;28;20419;-48
2020/12/29 09:27:29;;;;;;;10.20;8.30;;;;;;;;;;5030350;28;20718;-48
2020/12/29 09:29:57;;;;;;;8.50;6.70;;;;;;;;;;5030852;28;20182;-50
2020/12/29 09:32:24;;;;;;;11.90;7.45;;;;;;;;;;5031892;28;20237;-48
2020/12/29 09:34:50;;;;;;;8.93;7.10;;;;;;;;;;5031506;28;20259;-47
2020/12/29 09:37:16;;;;;;;8.00;7.20;;;;;;;;;;5031734;28;20202;-50
2020/12/29 09:39:44;;;;;;;10.13;7.57;;;;;;;;;;5031629;28;20249;-51
2020/12/29 09:42:10;;;;;;;9.27;6.93;;;;;;;;;;5031433;28;20169;-50
2020/12/29 09:44:37;;;;;;;11.57;7.30;;;;;;;;;;5031740;28;20168;-48
2020/12/29 09:47:03;;;;;;;8.45;6.72;;;;;;;;;;5031467;28;20431;-48
2020/12/29 09:49:29;;;;;;;9.80;7.13;;;;;;;;;;5031611;28;20182;-48
2020/12/29 09:51:55;;;;;;;13.60;6.83;;;;;;;;;;5031011;28;20261;-47
2020/12/29 09:54:21;;;;;;;10.52;7.68;;;;;;;;;;5031549;28;20407;-47
2020/12/29 09:56:49;;;;;;;12.00;7.90;;;;;;;;;;5031246;28;20603;-49
2020/12/29 09:59:15;;;;;;;9.20;7.78;;;;;;;;;;5031403;28;20402;-50
2020/12/29 10:01:41;;;;;;;9.73;6.90;;;;;;;;;;5030566;28;20162;-50
2020/12/29 10:04:08;;;;;;;12.40;7.27;;;;;;;;;;5031546;28;20456;-50
2020/12/29 10:06:34;;;;;;;10.20;6.70;;;;;;;;;;5031224;28;20952;-47
2020/12/29 10:09:00;;;;;;;9.63;6.37;;;;;;;;;;5031092;28;20173;-47
2020/12/29 10:11:27;;;;;;;13.23;7.30;;;;;;;;;;5030977;28;20903;-48
2020/12/29 10:13:55;;;;;;;13.65;7.25;;;;;;;;;;5031054;28;20416;-47
2020/12/29 10:16:21;;;;;;;8.02;5.85;;;;;;;;;;5030762;28;20290;-47
2020/12/29 10:18:47;;;;;;;10.23;6.70;;;;;;;;;;5030957;28;20213;-46
2020/12/29 10:21:13;;;;;;;10.60;7.18;;;;;;;;;;5030847;28;20406;-46
2020/12/29 10:23:38;;;;;;;10.87;7.13;;;;;;;;;;5030873;28;20193;-47
2020/12/29 10:26:04;;;;;;;13.70;8.97;;;;;;;;;;5030903;28;20405;-48
2020/12/29 10:28:30;;;;;;;15.95;7.90;;;;;;;;;;5030703;28;20408;-49
2020/12/29 10:30:57;;;;;;;11.90;7.67;;;;;;;;;;5030885;28;20177;-50
2020/12/29 10:33:24;;;;;;;9.18;7.40;;;;;;;;;;5030228;28;20452;-49
2020/12/29 10:35:52;;;;;;;10.85;7.63;;;;;;;;;;5030701;28;20678;-47
2020/12/29 10:38:18;;;;;;;9.40;7.38;;;;;;;;;;5030889;28;20249;-49
2020/12/29 10:40:44;;;;;;;9.13;7.22;;;;;;;;;;5032833;28;20703;-49
2020/12/29 10:43:12;;;;;;;11.80;7.57;;;;;;;;;;5049736;28;20187;-50
2020/12/29 10:45:38;;;;;;;13.57;8.20;;;;;;;;;;5050462;28;20454;-46
2020/12/29 10:48:04;;;;;;;17.83;7.90;;;;;;;;;;5050548;28;20200;-47
2020/12/29 10:50:30;;;;;;;12.97;8.87;;;;;;;;;;5050510;28;20457;-47
2020/12/29 10:52:58;;;;;;;22.93;9.63;;;;;;;;;;5050208;28;20422;-46
2020/12/29 10:55:24;;;;;;;13.18;9.88;;;;;;;;;;5050719;28;20412;-50
2020/12/29 10:57:50;;;;;;;13.68;9.68;;;;;;;;;;5050370;28;20195;-51
2020/12/29 11:00:16;;;;;;;17.95;9.63;;;;;;;;;;5050555;28;20170;-50
2020/12/29 11:02:42;;;;;;;21.13;11.73;;;;;;;;;;5038062;28;20206;-50
2020/12/29 11:05:08;;;;;;;27.40;12.63;;;;;;;;;;5030641;28;20400;-51
2020/12/29 11:07:34;;;;;;;22.63;12.47;;;;;;;;;;5030507;28;20400;-51
2020/12/29 11:10:00;;;;;;;23.20;13.73;;;;;;;;;;5030687;28;20401;-49
2020/12/29 11:12:26;;;;;;;23.47;13.23;;;;;;;;;;5030417;28;20486;-46
2020/12/29 11:14:52;;;;;;;20.97;12.33;;;;;;;;;;5035736;28;20453;-47
2020/12/29 11:17:18;;;;;;;19.00;12.70;;;;;;;;;;5036244;28;20595;-47
2020/12/29 11:19:44;;;;;;;25.10;15.20;;;;;;;;;;5030513;28;20408;-46
2020/12/29 11:22:10;;;;;;;18.70;12.57;;;;;;;;;;5030545;28;20405;-46
2020/12/29 11:24:36;;;;;;;27.57;13.63;;;;;;;;;;5030590;28;21003;-47
2020/12/29 11:27:02;;;;;;;18.67;13.27;;;;;;;;;;5030750;28;20405;-47
2020/12/29 11:29:29;;;;;;;26.10;14.83;;;;;;;;;;5033579;28;20513;-46
2020/12/29 11:31:55;;;;;;;26.35;13.77;;;;;;;;;;5036874;28;20431;-47
2020/12/29 11:34:21;;;;;;;25.67;15.50;;;;;;;;;;5051629;28;20213;-47
2020/12/29 11:36:49;;;;;;;28.60;17.20;;;;;;;;;;5053255;28;20269;-46
2020/12/29 11:39:15;;;;;;;20.83;13.32;;;;;;;;;;5052414;28;20643;-47
2020/12/29 11:41:41;;;;;;;24.03;15.30;;;;;;;;;;5053374;28;20229;-49
2020/12/29 11:44:07;;;;;;;24.03;15.47;;;;;;;;;;5053835;28;20447;-51
2020/12/29 11:46:35;;;;;;;24.90;16.60;;;;;;;;;;5053640;28;20430;-51
2020/12/29 11:49:01;;;;;;;21.30;14.82;;;;;;;;;;5053686;28;20905;-47
2020/12/29 11:51:27;;;;;;;27.07;15.23;;;;;;;;;;5053714;28;20183;-46
2020/12/29 11:53:52;;;;;;;26.83;15.83;;;;;;;;;;5053474;28;20497;-47
2020/12/29 11:56:18;;;;;;;27.60;17.20;;;;;;;;;;5053629;28;20510;-46
2020/12/29 11:58:44;;;;;;;29.20;18.03;;;;;;;;;;5053472;28;20448;-47
2020/12/29 12:01:10;;;;;;;33.03;17.57;;;;;;;;;;5050858;28;20398;-47
2020/12/29 12:03:36;;;;;;;31.20;16.37;;;;;;;;;;5033559;28;20434;-47
2020/12/29 12:06:02;;;;;;;29.30;15.03;;;;;;;;;;5033584;28;20490;-48
2020/12/29 12:08:28;;;;;;;35.53;18.80;;;;;;;;;;5033480;28;20397;-48
2020/12/29 12:10:54;;;;;;;32.33;16.93;;;;;;;;;;5033239;28;20180;-50
2020/12/29 12:13:20;;;;;;;29.80;16.50;;;;;;;;;;5033032;28;20575;-50
2020/12/29 12:15:46;;;;;;;28.23;16.57;;;;;;;;;;5033131;28;20406;-47
2020/12/29 12:18:12;;;;;;;30.83;18.07;;;;;;;;;;5033352;28;20405;-48
2020/12/29 12:20:38;;;;;;;28.37;17.70;;;;;;;;;;5033092;28;20408;-49
2020/12/29 12:23:04;;;;;;;26.83;16.30;;;;;;;;;;5032935;28;20430;-50
2020/12/29 12:25:30;;;;;;;35.43;19.03;;;;;;;;;;5033226;28;20187;-49
2020/12/29 12:27:57;;;;;;;29.37;17.63;;;;;;;;;;5032872;28;20408;-47
2020/12/29 12:30:23;;;;;;;29.95;18.42;;;;;;;;;;5033095;28;20402;-49
2020/12/29 12:32:49;;;;;;;31.00;16.63;;;;;;;;;;5033372;28;20280;-51
2020/12/29 12:35:17;;;;;;;37.05;18.88;;;;;;;;;;5033158;28;20426;-50
2020/12/29 12:37:43;;;;;;;31.50;19.15;;;;;;;;;;5032798;28;20212;-47
2020/12/29 12:40:12;;;;;;;35.40;19.02;;;;;;;;;;5032550;28;20161;-48
2020/12/29 12:42:38;;;;;;;32.05;18.05;;;;;;;;;;5032399;28;20190;-50
2020/12/29 12:45:04;;;;;;;32.63;18.03;;;;;;;;;;5032705;28;20189;-50
2020/12/29 12:47:30;;;;;;;30.30;18.20;;;;;;;;;;5032887;28;20503;-47
2020/12/29 12:49:56;;;;;;;39.53;20.05;;;;;;;;;;5032643;28;20412;-47
2020/12/29 12:52:22;;;;;;;28.00;17.93;;;;;;;;;;5032336;28;20208;-47
2020/12/29 12:54:48;;;;;;;33.40;18.87;;;;;;;;;;5032593;28;20408;-46
2020/12/29 12:57:14;;;;;;;36.87;19.57;;;;;;;;;;5032456;28;20973;-47
2020/12/29 12:59:40;;;;;;;32.43;17.93;;;;;;;;;;5032576;28;20407;-48
2020/12/29 13:02:06;;;;;;;24.30;14.73;;;;;;;;;;5031817;28;20433;-49
2020/12/29 13:04:32;;;;;;;29.97;15.70;;;;;;;;;;5032513;28;20486;-50
2020/12/29 13:06:58;;;;;;;27.47;15.30;;;;;;;;;;5032304;28;20407;-46
2020/12/29 13:09:24;;;;;;;28.20;16.07;;;;;;;;;;5031158;28;20414;-46
2020/12/29 13:11:50;;;;;;;26.27;14.73;;;;;;;;;;5031893;28;20408;-46
2020/12/29 13:14:16;;;;;;;29.67;15.82;;;;;;;;;;5032271;28;20761;-47
2020/12/29 13:16:42;;;;;;;25.80;14.67;;;;;;;;;;5032153;28;20224;-47
2020/12/29 13:19:08;;;;;;;30.20;13.43;;;;;;;;;;5032082;28;20444;-47
2020/12/29 13:21:34;;;;;;;25.47;14.70;;;;;;;;;;5031834;28;20560;-46
2020/12/29 13:24:02;;;;;;;25.80;14.45;;;;;;;;;;5031968;28;20413;-46
2020/12/29 13:26:29;;;;;;;26.23;15.05;;;;;;;;;;5031970;28;20169;-48
2020/12/29 13:28:55;;;;;;;25.27;13.73;;;;;;;;;;5031923;28;20198;-48
2020/12/29 13:31:22;;;;;;;22.65;13.40;;;;;;;;;;5031870;28;20184;-50
2020/12/29 13:33:48;;;;;;;30.10;13.35;;;;;;;;;;5031900;28;20186;-50
2020/12/29 13:36:14;;;;;;;20.80;13.40;;;;;;;;;;5031702;28;20193;-47
2020/12/29 13:38:40;;;;;;;29.83;13.38;;;;;;;;;;5031872;28;20313;-48
2020/12/29 13:41:06;;;;;;;22.13;12.60;;;;;;;;;;5031351;28;20681;-50
2020/12/29 13:43:32;;;;;;;16.43;11.10;;;;;;;;;;5031911;28;20466;-50
2020/12/29 13:45:59;;;;;;;23.52;12.50;;;;;;;;;;5031464;28;20438;-47
2020/12/29 13:48:28;;;;;;;19.85;12.70;;;;;;;;;;5031732;28;20703;-46
2020/12/29 13:50:54;;;;;;;17.35;12.07;;;;;;;;;;5030766;28;20242;-50
2020/12/29 13:53:20;;;;;;;22.38;12.55;;;;;;;;;;5031190;28;20220;-51
2020/12/29 13:55:51;;;;;;;20.60;13.02;;;;;;;;;;5031730;28;20210;-51
2020/12/29 13:58:17;;;;;;;17.02;10.95;;;;;;;;;;5031442;28;20177;-46
2020/12/29 14:00:43;;;;;;;17.00;11.43;;;;;;;;;;5031452;28;20249;-46
2020/12/29 14:03:10;;;;;;;15.63;10.88;;;;;;;;;;5031241;28;20555;-46
2020/12/29 14:05:36;;;;;;;16.48;10.07;;;;;;;;;;5031560;28;20534;-46
2020/12/29 14:08:05;;;;;;;18.33;12.00;;;;;;;;;;5031246;28;20169;-46
2020/12/29 14:10:31;;;;;;;11.55;9.57;;;;;;;;;;5030286;28;20253;-47
2020/12/29 14:12:57;;;;;;;20.80;11.38;;;;;;;;;;5031024;28;20189;-47
2020/12/29 14:15:23;;;;;;;13.68;9.45;;;;;;;;;;5031067;28;20173;-47
2020/12/29 14:17:49;;;;;;;16.25;10.65;;;;;;;;;;5031094;28;20251;-47
2020/12/29 14:20:15;;;;;;;18.43;11.20;;;;;;;;;;5030834;28;20220;-47
2020/12/29 14:22:41;;;;;;;18.77;11.10;;;;;;;;;;5030694;28;20498;-47
2020/12/29 14:25:07;;;;;;;17.83;10.73;;;;;;;;;;5030888;28;20427;-48
2020/12/29 14:27:33;;;;;;;11.68;9.60;;;;;;;;;;5031662;28;20503;-48
2020/12/29 14:30:00;;;;;;;17.23;10.23;;;;;;;;;;5030847;28;20202;-50
2020/12/29 14:32:26;;;;;;;15.55;10.35;;;;;;;;;;5030344;28;20202;-48